Time;durP1;ratioP1;P1;durP2;ratioP2;P2;SDS_P1;SDS_P2;PMS_P1;PMS_P2;Temp;Humidity;BMP_temperature;BMP_pressure;BME280_temperature;BME280_humidity;BME280_pressure;Samples;Min_cycle;Max_cycle;Signal;HPM_P1;HPM_P2
2021/09/30 00:02:03;;;;;;;4.65;1.10;;;;;;;11.87;66.33;102266.47;5033487;28;20064;-42
2021/09/30 00:04:29;;;;;;;7.95;1.40;;;;;;;11.87;66.65;102266.47;5033500;28;20032;-41
2021/09/30 00:06:54;;;;;;;5.40;1.10;;;;;;;11.88;65.79;102273.59;5033443;28;20034;-41
2021/09/30 00:09:19;;;;;;;10.82;1.75;;;;;;;11.88;67.00;102273.59;5032819;28;20110;-40
2021/09/30 00:11:48;;;;;;;4.32;1.15;;;;;;;11.89;67.54;102271.72;5031985;28;20492;-42
2021/09/30 00:36:02;;;;;;;5.45;1.45;;;;;;;11.93;66.98;102292.84;5033246;28;20412;-41
2021/09/30 00:41:40;;;;;;;7.80;1.20;;;;;;;11.91;66.77;102288.63;5032904;28;20107;-41
2021/09/30 00:52:01;;;;;;;6.07;1.20;;;;;;;11.91;66.89;102299.41;5033062;28;20068;-42
2021/09/30 00:54:46;;;;;;;7.10;1.20;;;;;;;11.90;66.34;102303.97;5031851;28;20484;-41
2021/09/30 02:25:50;;;;;;;6.63;1.50;;;;;;;11.84;66.01;102309.94;5035428;28;20418;-41
2021/09/30 02:28:46;;;;;;;10.75;1.30;;;;;;;11.86;64.28;102308.81;5034232;28;20112;-41
2021/09/30 02:31:32;;;;;;;3.60;1.08;;;;;;;11.88;64.25;102310.53;5034005;28;20111;-42
2021/09/30 02:58:37;;;;;;;9.13;1.90;;;;;;;11.76;64.13;102317.94;5033621;28;20087;-41
2021/09/30 03:01:22;;;;;;;9.65;1.58;;;;;;;11.75;64.37;102308.16;5017199;28;20029;-40
2021/09/30 03:03:47;;;;;;;10.05;1.95;;;;;;;11.74;64.66;102311.84;5036049;28;20033;-40
2021/09/30 03:06:13;;;;;;;7.88;1.17;;;;;;;11.78;64.22;102310.56;5042151;28;20043;-41
2021/09/30 03:08:46;;;;;;;9.70;1.58;;;;;;;11.81;64.63;102310.25;5014366;28;20469;-40
2021/09/30 03:11:13;;;;;;;11.02;1.63;;;;;;;11.77;64.91;102314.22;5027290;28;20069;-42
2021/09/30 03:13:40;;;;;;;5.32;1.35;;;;;;;11.79;63.30;102313.06;5034566;28;20494;-40
2021/09/30 03:16:52;;;;;;;16.77;2.88;;;;;;;11.82;63.64;102317.31;5032935;28;20033;-41
2021/09/30 03:18:59;;;;;;;9.65;1.73;;;;;;;11.79;63.19;102317.63;5033638;28;20057;-41
2021/09/30 03:24:10;;;;;;;10.75;1.50;;;;;;;11.80;62.42;102316.66;5033416;28;20040;-41
2021/09/30 03:26:36;;;;;;;7.68;1.17;;;;;;;11.81;62.07;102331.81;5033014;28;20037;-41
2021/09/30 03:29:02;;;;;;;16.65;1.70;;;;;;;11.80;62.00;102320.19;5034153;28;20041;-41
2021/09/30 03:31:29;;;;;;;12.82;1.88;;;;;;;11.81;61.50;102323.72;5034310;28;20491;-41
2021/09/30 03:33:56;;;;;;;7.18;1.38;;;;;;;11.77;61.60;102335.81;5032817;28;20034;-41
2021/09/30 03:36:21;;;;;;;4.82;1.25;;;;;;;11.72;61.69;102327.34;5032955;28;20025;-41
2021/09/30 03:38:47;;;;;;;3.60;1.13;;;;;;;11.70;61.76;102346.38;5032697;28;20535;-42
2021/09/30 03:41:12;;;;;;;6.05;1.70;;;;;;;11.71;62.41;102341.81;5033712;28;20036;-41
2021/09/30 03:43:38;;;;;;;5.93;1.40;;;;;;;11.63;61.74;102335.34;5034014;28;20078;-42
2021/09/30 03:46:03;;;;;;;6.20;1.20;;;;;;;11.64;62.08;102345.16;5032565;28;20065;-41
2021/09/30 03:48:28;;;;;;;4.07;1.38;;;;;;;11.60;61.93;102345.59;5033828;28;20033;-41
2021/09/30 04:01:12;;;;;;;7.18;1.10;;;;;;;11.62;62.70;102349.84;5033749;28;20152;-41
2021/09/30 04:03:38;;;;;;;6.82;1.23;;;;;;;11.68;62.75;102347.53;5033563;28;20124;-42
2021/09/30 04:06:03;;;;;;;8.35;1.48;;;;;;;11.74;62.36;102345.09;5031917;28;20029;-42
2021/09/30 04:08:29;;;;;;;12.23;1.83;;;;;;;11.83;61.86;102348.69;5033468;28;20477;-41
2021/09/30 04:10:56;;;;;;;10.18;1.98;;;;;;;11.86;62.53;102356.50;5048741;28;20116;-42
2021/09/30 04:13:21;;;;;;;9.63;1.83;;;;;;;11.89;62.25;102356.22;5033384;28;20037;-41
2021/09/30 04:15:49;;;;;;;9.55;2.42;;;;;;;11.89;61.78;102358.06;5033244;28;20026;-42
2021/09/30 04:18:15;;;;;;;5.32;1.20;;;;;;;11.90;62.11;102355.22;5033254;28;20049;-41
2021/09/30 04:20:40;;;;;;;10.27;1.63;;;;;;;11.95;62.30;102360.97;5033285;28;20021;-41
2021/09/30 04:23:06;;;;;;;5.60;1.15;;;;;;;11.97;62.14;102363.53;5033296;28;20111;-40
2021/09/30 04:25:31;;;;;;;8.55;1.63;;;;;;;11.95;62.67;102360.97;5033187;28;20117;-42
2021/09/30 04:27:56;;;;;;;9.10;1.30;;;;;;;11.95;62.44;102369.06;5031908;28;20117;-41
2021/09/30 04:30:22;;;;;;;7.53;1.73;;;;;;;11.98;60.86;102371.50;5031223;28;20040;-40
2021/09/30 04:32:47;;;;;;;9.18;1.90;;;;;;;11.95;61.46;102371.78;5033212;28;20109;-42
2021/09/30 04:35:13;;;;;;;7.55;1.58;;;;;;;11.91;61.25;102370.41;5030879;28;20029;-40
2021/09/30 04:37:38;;;;;;;7.53;1.30;;;;;;;11.91;61.57;102375.78;5031831;28;20072;-41
2021/09/30 04:40:04;;;;;;;7.22;1.55;;;;;;;11.98;60.30;102382.28;5032688;28;20029;-42
2021/09/30 04:42:30;;;;;;;13.52;1.50;;;;;;;11.99;60.46;102378.56;5033007;28;20044;-41
2021/09/30 04:44:55;;;;;;;6.22;1.27;;;;;;;11.91;61.38;102381.19;5032718;28;20018;-41
2021/09/30 04:47:21;;;;;;;7.38;1.45;;;;;;;11.89;62.06;102380.50;5032813;28;20067;-41
2021/09/30 04:49:46;;;;;;;6.15;1.42;;;;;;;11.84;62.14;102386.31;5032774;28;20057;-41
2021/09/30 04:52:11;;;;;;;7.65;1.30;;;;;;;11.78;62.61;102386.06;5032094;28;20022;-40
2021/09/30 04:54:37;;;;;;;8.98;1.58;;;;;;;11.74;63.01;102374.75;5032199;28;20049;-41
2021/09/30 04:57:03;;;;;;;9.80;1.48;;;;;;;11.71;63.72;102374.19;5032454;28;20029;-41
2021/09/30 04:59:28;;;;;;;9.30;1.48;;;;;;;11.68;63.42;102387.97;5028660;28;20037;-41
2021/09/30 05:01:53;;;;;;;9.02;1.58;;;;;;;11.64;62.90;102380.19;5032531;28;20071;-41
2021/09/30 05:04:19;;;;;;;6.03;1.38;;;;;;;11.62;61.77;102379.50;5032766;28;20022;-40
2021/09/30 05:06:44;;;;;;;4.18;1.27;;;;;;;11.63;61.33;102373.09;5030610;28;20385;-41
2021/09/30 05:09:10;;;;;;;8.52;1.77;;;;;;;11.62;61.92;102386.75;5032022;28;20113;-42
2021/09/30 05:11:39;;;;;;;6.72;1.27;;;;;;;11.57;62.27;102383.66;5018601;28;20022;-43
2021/09/30 05:14:05;;;;;;;11.20;1.83;;;;;;;11.53;62.51;102380.41;5032513;28;20471;-42
2021/09/30 05:16:30;;;;;;;7.90;1.23;;;;;;;11.48;63.04;102380.03;5027346;28;20108;-40
2021/09/30 05:18:57;;;;;;;6.95;1.20;;;;;;;11.50;62.68;102382.53;5011137;28;20138;-40
2021/09/30 05:21:24;;;;;;;11.65;1.50;;;;;;;11.50;61.47;102378.00;5028466;28;20116;-41
2021/09/30 05:23:51;;;;;;;7.68;1.35;;;;;;;11.52;61.39;102376.00;5032259;28;20064;-41
2021/09/30 05:26:16;;;;;;;11.82;1.27;;;;;;;11.53;60.57;102377.72;5032154;28;20021;-41
2021/09/30 05:28:41;;;;;;;11.55;1.50;;;;;;;11.50;61.88;102377.16;5031043;28;20032;-41
2021/09/30 05:31:07;;;;;;;8.52;1.60;;;;;;;11.49;61.83;102373.63;5043525;28;20115;-42
2021/09/30 05:33:33;;;;;;;3.70;1.02;;;;;;;11.52;60.65;102370.59;5038877;28;20029;-40
2021/09/30 05:35:58;;;;;;;7.15;1.35;;;;;;;11.53;60.06;102372.31;5030964;28;20084;-41
2021/09/30 05:38:24;;;;;;;6.07;1.30;;;;;;;11.54;60.14;102374.00;5030002;28;20087;-40
2021/09/30 05:40:49;;;;;;;4.03;1.38;;;;;;;11.56;58.99;102374.72;5031325;28;20099;-41
2021/09/30 05:43:36;;;;;;;7.28;1.52;;;;;;;11.55;59.08;102370.31;5030683;28;20031;-42
2021/09/30 05:46:03;;;;;;;11.15;2.42;;;;;;;11.52;59.27;102370.59;5031784;28;20472;-40
2021/09/30 05:48:29;;;;;;;5.22;1.17;;;;;;;11.48;59.22;102369.22;5031476;28;20376;-41
2021/09/30 05:50:54;;;;;;;5.68;1.00;;;;;;;11.49;58.23;102365.53;5031498;28;20468;-41
2021/09/30 05:53:20;;;;;;;10.35;1.60;;;;;;;11.52;58.59;102364.38;5031313;28;20505;-41
2021/09/30 05:55:46;;;;;;;4.88;1.02;;;;;;;11.53;58.13;102361.53;5031316;28;20091;-41
2021/09/30 05:58:12;;;;;;;7.20;1.80;;;;;;;11.51;58.06;102373.47;5030848;28;20108;-42
2021/09/30 06:00:58;;;;;;;9.88;1.10;;;;;;;11.52;57.22;102373.31;5030131;28;20048;-42
2021/09/30 06:14:05;;;;;;;7.07;1.50;;;;;;;11.84;57.21;102371.97;5029558;28;20140;-42
2021/09/30 06:16:35;;;;;;;5.80;1.25;;;;;;;11.88;56.95;102380.66;5030741;28;20029;-41
2021/09/30 06:19:01;;;;;;;4.07;1.08;;;;;;;11.90;56.97;102379.50;5030257;28;20045;-41
2021/09/30 06:21:27;;;;;;;6.00;1.25;;;;;;;11.91;56.69;102381.19;5032375;28;20061;-40
2021/09/30 06:23:52;;;;;;;4.55;0.80;;;;;;;11.95;57.26;102377.16;5034804;28;20036;-40
2021/09/30 06:26:17;;;;;;;7.78;1.20;;;;;;;11.96;56.61;102378.88;5033948;28;20040;-41
2021/09/30 06:28:43;;;;;;;4.10;1.08;;;;;;;12.07;56.95;102375.09;5032417;28;20182;-41
2021/09/30 06:31:08;;;;;;;8.15;1.30;;;;;;;12.24;56.73;102376.09;5025163;28;20033;-40
2021/09/30 06:33:33;;;;;;;7.25;1.25;;;;;;;12.45;56.07;102368.53;5032697;28;20021;-40
2021/09/30 06:35:59;;;;;;;6.43;1.50;;;;;;;12.72;55.91;102374.78;5031759;28;20048;-40
2021/09/30 06:38:24;;;;;;;5.95;1.15;;;;;;;13.03;55.42;102372.41;5024226;28;21189;-41
2021/09/30 06:40:49;;;;;;;9.93;1.50;;;;;;;13.20;54.52;102372.53;5032031;28;20033;-42
2021/09/30 06:43:15;;;;;;;4.07;1.02;;;;;;;13.21;54.44;102369.66;5031973;28;20029;-41
2021/09/30 06:45:40;;;;;;;8.95;1.38;;;;;;;13.08;55.59;102369.25;5032584;28;20029;-41
2021/09/30 06:48:06;;;;;;;10.40;1.73;;;;;;;12.96;55.69;102374.09;5032985;28;20022;-43
2021/09/30 06:50:31;;;;;;;9.43;1.40;;;;;;;12.88;56.12;102376.75;5027968;28;20034;-42
2021/09/30 06:52:59;;;;;;;9.98;1.67;;;;;;;12.87;56.89;102377.75;5014793;28;20037;-42
2021/09/30 06:55:24;;;;;;;5.57;1.60;;;;;;;12.80;57.26;102380.25;5029342;28;20122;-43
2021/09/30 06:57:50;;;;;;;7.35;1.20;;;;;;;12.75;57.58;102379.88;5034448;28;20072;-42
2021/09/30 07:00:16;;;;;;;9.57;1.25;;;;;;;12.75;57.71;102382.56;5033516;28;20069;-41
2021/09/30 07:02:42;;;;;;;8.27;1.77;;;;;;;12.77;57.35;102377.88;5031228;28;20481;-42
2021/09/30 07:05:11;;;;;;;5.85;1.25;;;;;;;12.82;57.61;102378.25;5033356;28;20048;-42
2021/09/30 07:07:36;;;;;;;5.70;1.35;;;;;;;12.86;57.96;102378.75;5026181;28;20034;-43
2021/09/30 07:10:03;;;;;;;7.13;1.42;;;;;;;13.05;57.73;102383.94;5041125;28;20492;-41
2021/09/30 07:12:29;;;;;;;7.67;1.27;;;;;;;13.14;56.44;102382.97;5036499;28;20430;-42
2021/09/30 07:14:54;;;;;;;6.57;1.63;;;;;;;13.29;56.67;102388.63;5034061;28;20109;-42
2021/09/30 07:17:20;;;;;;;11.65;1.52;;;;;;;13.37;56.55;102385.97;5033569;28;20449;-40
2021/09/30 07:19:45;;;;;;;5.03;1.08;;;;;;;13.47;55.63;102398.53;5040426;28;20095;-41
2021/09/30 07:22:10;;;;;;;8.77;1.33;;;;;;;13.45;55.85;102395.13;5032339;28;20141;-41
2021/09/30 07:24:37;;;;;;;4.63;1.05;;;;;;;13.43;54.82;102395.31;5034383;28;20207;-41
2021/09/30 07:27:04;;;;;;;6.90;1.02;;;;;;;13.64;54.98;102402.13;5033964;28;20017;-41
2021/09/30 07:29:31;;;;;;;10.48;1.50;;;;;;;13.99;53.95;102401.91;5032658;28;20522;-42
2021/09/30 07:31:56;;;;;;;5.63;1.27;;;;;;;14.60;52.18;102393.50;5029973;28;20187;-42
2021/09/30 07:34:21;;;;;;;7.15;1.42;;;;;;;15.11;51.37;102397.66;5032010;28;20105;-42
2021/09/30 07:36:47;;;;;;;4.50;1.17;;;;;;;15.93;49.83;102400.00;5033264;28;20025;-43
2021/09/30 07:39:16;;;;;;;8.23;1.85;;;;;;;16.20;48.32;102403.22;5032500;28;20402;-42
2021/09/30 07:41:41;;;;;;;7.05;1.20;;;;;;;16.54;47.64;102405.50;5032585;28;20435;-43
2021/09/30 07:44:07;;;;;;;4.88;1.15;;;;;;;16.50;46.57;102397.88;5031924;28;20116;-41
2021/09/30 07:46:34;;;;;;;2.47;1.13;;;;;;;16.57;48.08;102404.28;5033053;28;20036;-41
2021/09/30 07:49:00;;;;;;;3.85;1.02;;;;;;;15.84;48.83;102401.06;5033241;28;20041;-42
2021/09/30 07:51:25;;;;;;;7.30;1.42;;;;;;;15.71;50.94;102398.94;5033017;28;20026;-41
2021/09/30 07:53:51;;;;;;;6.60;1.42;;;;;;;15.06;51.52;102404.59;5033169;28;20087;-41
2021/09/30 07:56:16;;;;;;;5.93;1.38;;;;;;;14.80;52.96;102400.25;5032945;28;20499;-42
2021/09/30 07:58:42;;;;;;;6.00;1.45;;;;;;;14.49;53.11;102408.19;5031458;28;20540;-42
2021/09/30 08:01:08;;;;;;;5.30;1.02;;;;;;;14.18;54.55;102411.56;5036791;28;20488;-41
2021/09/30 08:03:34;;;;;;;8.75;1.30;;;;;;;14.09;54.77;102406.31;5030855;28;20384;-41
2021/09/30 08:05:59;;;;;;;11.88;1.60;;;;;;;13.93;57.26;102407.97;5032454;28;20037;-41
2021/09/30 08:08:25;;;;;;;8.40;1.52;;;;;;;13.53;59.70;102405.97;5032772;28;20524;-42
2021/09/30 08:10:50;;;;;;;5.43;1.23;;;;;;;13.42;61.53;102409.00;5032718;28;20417;-41
2021/09/30 08:13:15;;;;;;;7.90;1.65;;;;;;;13.40;62.20;102409.13;5032968;28;20100;-41
2021/09/30 08:15:41;;;;;;;3.05;1.20;;;;;;;13.82;61.47;102411.84;5032813;28;20539;-42
2021/09/30 08:18:06;;;;;;;5.40;1.33;;;;;;;14.47;59.97;102415.66;5032446;28;20056;-41
2021/09/30 08:20:34;;;;;;;8.50;2.05;;;;;;;15.36;57.49;102409.25;5032476;28;20345;-41
2021/09/30 08:22:59;;;;;;;5.68;1.35;;;;;;;15.79;55.98;102407.03;5032744;28;20468;-42
2021/09/30 08:25:25;;;;;;;4.80;1.27;;;;;;;15.74;55.13;102408.59;5032624;28;20039;-41
2021/09/30 08:27:50;;;;;;;7.85;1.40;;;;;;;15.29;56.47;102401.97;5032609;28;20025;-42
2021/09/30 08:30:16;;;;;;;7.13;1.58;;;;;;;15.32;55.90;102404.34;5030360;28;20852;-41
2021/09/30 08:32:41;;;;;;;7.45;1.48;;;;;;;15.09;56.34;102415.13;5031998;28;20041;-42
2021/09/30 08:35:07;;;;;;;7.43;1.17;;;;;;;14.97;56.14;102408.34;5030754;28;20021;-42
2021/09/30 08:37:33;;;;;;;5.65;1.17;;;;;;;14.70;56.53;102405.84;5027790;28;20315;-42
2021/09/30 08:39:58;;;;;;;5.00;1.30;;;;;;;14.45;56.89;102407.69;5030352;28;20469;-42
2021/09/30 08:42:24;;;;;;;7.45;1.17;;;;;;;14.31;57.39;102399.41;5030998;28;20068;-41
2021/09/30 08:44:52;;;;;;;13.85;1.90;;;;;;;14.23;60.07;102403.78;5029216;28;20013;-42
2021/09/30 08:47:20;;;;;;;6.55;1.60;;;;;;;14.06;62.61;102393.97;5013760;28;20075;-45
2021/09/30 08:49:45;;;;;;;5.93;1.40;;;;;;;13.90;64.16;102402.03;5031153;28;20037;-45
2021/09/30 08:52:11;;;;;;;6.30;1.50;;;;;;;13.70;64.98;102396.91;5035578;28;20083;-43
2021/09/30 08:54:37;;;;;;;6.18;1.65;;;;;;;13.51;64.54;102402.63;5031408;28;20422;-44
2021/09/30 08:57:05;;;;;;;9.23;1.42;;;;;;;13.52;65.36;102405.13;5001036;28;20021;-42
2021/09/30 08:59:31;;;;;;;6.57;2.13;;;;;;;13.36;65.62;102395.09;5014951;28;20496;-42
2021/09/30 09:02:07;;;;;;;10.38;1.98;;;;;;;13.34;65.30;102402.53;5030515;28;20029;-44
2021/09/30 09:04:33;;;;;;;7.18;1.75;;;;;;;13.35;65.55;102388.00;5032766;28;20431;-42
2021/09/30 09:07:09;;;;;;;6.43;1.65;;;;;;;13.38;65.06;102393.09;5047951;28;20032;-43
2021/09/30 09:09:35;;;;;;;9.02;1.50;;;;;;;13.38;64.98;102390.38;5030716;28;20143;-42
2021/09/30 09:12:08;;;;;;;10.23;1.70;;;;;;;13.35;65.21;102387.16;5030350;28;20112;-44
2021/09/30 09:14:39;;;;;;;6.28;1.30;;;;;;;13.38;65.40;102379.56;5031412;28;20040;-42
2021/09/30 09:17:08;;;;;;;10.57;1.60;;;;;;;13.42;65.31;102390.06;5013993;28;20029;-43
2021/09/30 09:19:41;;;;;;;8.15;1.65;;;;;;;13.56;64.54;102378.59;5030834;28;20033;-42
2021/09/30 09:22:16;;;;;;;6.50;1.63;;;;;;;13.55;63.29;102385.88;5030720;28;20041;-43
2021/09/30 09:24:59;;;;;;;15.15;1.95;;;;;;;13.76;63.06;102390.84;5030949;28;20053;-44
2021/09/30 09:27:47;;;;;;;7.50;1.85;;;;;;;13.92;62.67;102378.38;5030813;28;20713;-42
2021/09/30 09:30:36;;;;;;;8.98;1.70;;;;;;;14.03;62.60;102384.31;5030466;28;20469;-44
2021/09/30 09:33:12;;;;;;;5.95;1.23;;;;;;;14.07;61.82;102378.56;5029444;28;20017;-43
2021/09/30 09:36:09;;;;;;;7.13;1.35;;;;;;;14.17;60.52;102382.81;5032541;28;20033;-42
2021/09/30 09:38:54;;;;;;;7.07;1.25;;;;;;;14.15;59.64;102382.13;5030096;28;20036;-43
2021/09/30 09:41:25;;;;;;;9.80;1.38;;;;;;;14.14;59.27;102371.44;5030530;28;20129;-41
2021/09/30 09:43:53;;;;;;;8.50;1.52;;;;;;;14.17;59.51;102371.97;5031294;28;20095;-39
2021/09/30 09:46:20;;;;;;;6.28;1.27;;;;;;;14.17;59.79;102371.97;5031527;28;20025;-42
2021/09/30 09:49:08;;;;;;;7.00;1.48;;;;;;;14.30;59.36;102374.19;5031445;28;20087;-41
2021/09/30 09:51:47;;;;;;;3.92;1.50;;;;;;;14.42;58.98;102375.50;5030233;28;20083;-41
2021/09/30 09:54:20;;;;;;;6.63;1.48;;;;;;;14.58;57.87;102369.28;5030746;28;20389;-42
2021/09/30 09:56:46;;;;;;;4.38;1.13;;;;;;;14.85;57.03;102369.91;5034533;28;20096;-42
2021/09/30 09:59:12;;;;;;;5.65;1.20;;;;;;;14.93;56.28;102367.19;5035037;28;20029;-40
2021/09/30 10:01:45;;;;;;;6.38;1.35;;;;;;;15.11;56.99;102366.94;5034346;28;20041;-41
2021/09/30 10:04:11;;;;;;;7.05;1.40;;;;;;;15.04;55.75;102371.41;5034449;28;20037;-41
2021/09/30 10:06:38;;;;;;;8.38;1.25;;;;;;;14.86;53.80;102377.03;5034058;28;20041;-40
2021/09/30 10:09:05;;;;;;;2.92;0.98;;;;;;;14.79;52.76;102376.03;5035608;28;20029;-41
2021/09/30 10:11:31;;;;;;;8.25;1.45;;;;;;;14.83;51.95;102366.53;5031528;28;20030;-42
2021/09/30 10:14:01;;;;;;;4.18;0.90;;;;;;;14.85;52.26;102375.31;5024747;28;20468;-41
2021/09/30 10:16:27;;;;;;;7.00;1.02;;;;;;;14.93;52.63;102364.50;5034071;28;20084;-41
2021/09/30 10:19:04;;;;;;;4.32;0.90;;;;;;;14.97;51.33;102365.81;5033814;28;20041;-40
2021/09/30 10:21:31;;;;;;;4.10;1.20;;;;;;;14.91;53.69;102369.22;5034535;28;20047;-41
2021/09/30 10:23:59;;;;;;;4.63;0.93;;;;;;;14.66;56.63;102366.53;5034361;28;20028;-41
2021/09/30 10:26:44;;;;;;;6.47;1.50;;;;;;;14.51;58.66;102362.84;5033476;28;20021;-41
2021/09/30 10:29:10;;;;;;;5.45;1.30;;;;;;;14.30;59.86;102360.63;5033399;28;20067;-40
2021/09/30 10:31:37;;;;;;;9.57;1.42;;;;;;;14.21;60.62;102362.47;5032171;28;20119;-40
2021/09/30 10:34:07;;;;;;;10.75;1.70;;;;;;;14.30;60.92;102360.63;5033779;28;20029;-42
2021/09/30 10:36:33;;;;;;;7.85;1.45;;;;;;;14.33;60.47;102362.16;5033307;28;20036;-41
2021/09/30 10:39:14;;;;;;;4.40;1.60;;;;;;;14.21;60.01;102348.94;5035648;28;20384;-42
2021/09/30 10:41:39;;;;;;;5.25;1.60;;;;;;;14.33;59.54;102359.47;5034252;28;20041;-40
2021/09/30 10:44:19;;;;;;;6.53;1.33;;;;;;;14.10;59.97;102376.34;5034187;28;20022;-41
2021/09/30 10:46:50;;;;;;;8.98;1.98;;;;;;;14.11;60.42;102363.66;5033262;28;20041;-41
2021/09/30 10:49:36;;;;;;;3.90;1.40;;;;;;;13.91;59.90;102355.03;5032802;28;20120;-42
2021/09/30 10:52:31;;;;;;;3.35;1.33;;;;;;;13.78;60.99;102356.34;5033820;28;20388;-41
2021/09/30 10:55:10;;;;;;;4.72;1.10;;;;;;;13.78;60.15;102360.91;5033823;28;20026;-41
2021/09/30 10:57:45;;;;;;;5.40;1.20;;;;;;;13.76;60.37;102358.38;5025961;28;20033;-42
2021/09/30 11:00:12;;;;;;;5.40;0.93;;;;;;;13.83;60.57;102359.41;5035708;28;20365;-41
2021/09/30 11:03:13;;;;;;;4.93;1.48;;;;;;;13.93;60.59;102358.38;5033748;28;20029;-41
2021/09/30 11:05:42;;;;;;;3.92;1.38;;;;;;;13.97;61.39;102359.75;5031463;28;20037;-42
2021/09/30 11:08:21;;;;;;;7.25;1.75;;;;;;;13.89;60.34;102346.22;5018400;28;20061;-42
2021/09/30 11:11:12;;;;;;;7.28;1.80;;;;;;;13.58;60.74;102349.53;5031712;28;20037;-41
2021/09/30 11:13:40;;;;;;;4.55;1.27;;;;;;;13.56;61.22;102340.72;5032632;28;20051;-41
2021/09/30 11:16:20;;;;;;;6.10;1.42;;;;;;;13.58;61.47;102350.38;5033427;28;20028;-40
2021/09/30 11:18:55;;;;;;;5.53;1.20;;;;;;;13.56;62.15;102351.53;5033507;28;20054;-40
2021/09/30 11:24:03;;;;;;;4.97;1.42;;;;;;;13.49;61.62;102345.13;5033805;28;20129;-41
2021/09/30 11:26:53;;;;;;;4.60;1.50;;;;;;;13.39;62.18;102339.84;5033463;28;20030;-40
2021/09/30 11:31:49;;;;;;;4.68;1.35;;;;;;;13.49;61.72;102340.56;5031205;28;20136;-41
2021/09/30 11:34:22;;;;;;;8.13;1.63;;;;;;;13.45;61.78;102332.94;5029464;28;20026;-40
2021/09/30 11:36:47;;;;;;;6.47;1.20;;;;;;;13.46;61.43;102338.19;5033197;28;20052;-41
2021/09/30 11:39:13;;;;;;;13.90;2.00;;;;;;;13.47;62.00;102333.63;5031543;28;20473;-40
2021/09/30 11:41:41;;;;;;;6.20;1.20;;;;;;;13.50;60.79;102336.00;5032664;28;20029;-40
2021/09/30 11:44:07;;;;;;;5.97;1.15;;;;;;;13.44;60.78;102331.25;5032088;28;20416;-41
2021/09/30 11:46:38;;;;;;;6.15;1.38;;;;;;;13.48;60.95;102321.78;5033199;28;20199;-41
2021/09/30 11:49:06;;;;;;;4.65;1.13;;;;;;;13.47;60.07;102322.78;5012654;28;20495;-42
2021/09/30 11:51:38;;;;;;;6.22;1.00;;;;;;;13.42;60.55;102317.88;5031774;28;20178;-41
2021/09/30 11:54:05;;;;;;;3.78;0.90;;;;;;;13.46;60.03;102311.13;5036633;28;20400;-41
2021/09/30 11:56:38;;;;;;;5.97;1.20;;;;;;;13.59;60.47;102318.78;5031900;28;20121;-41
2021/09/30 11:59:05;;;;;;;6.63;1.50;;;;;;;13.64;60.45;102319.13;5031426;28;20022;-42
2021/09/30 12:02:06;;;;;;;2.63;1.08;;;;;;;13.63;58.79;102316.59;5031813;28;20022;-41
2021/09/30 12:04:38;;;;;;;4.85;1.08;;;;;;;13.60;59.13;102313.19;5031266;28;20067;-41
2021/09/30 12:07:04;;;;;;;4.03;1.02;;;;;;;13.45;59.73;102311.28;5032278;28;20022;-42
2021/09/30 12:09:34;;;;;;;2.03;1.00;;;;;;;13.47;60.24;102310.13;5033023;28;20052;-41
2021/09/30 12:12:02;;;;;;;4.68;1.17;;;;;;;13.45;60.14;102305.88;5032013;28;20017;-42
2021/09/30 12:14:35;;;;;;;5.95;1.15;;;;;;;13.45;59.40;102306.72;5030695;28;20400;-41
2021/09/30 12:17:03;;;;;;;3.80;1.23;;;;;;;13.41;59.81;102299.97;5021855;28;20034;-40
2021/09/30 12:19:37;;;;;;;3.78;1.00;;;;;;;13.51;60.70;102299.84;5029907;28;20076;-42
2021/09/30 12:22:09;;;;;;;2.90;1.02;;;;;;;13.42;60.14;102290.00;5031997;28;20021;-41
2021/09/30 12:24:34;;;;;;;5.22;1.30;;;;;;;13.50;61.05;102298.13;5031097;28;20025;-42
2021/09/30 12:27:01;;;;;;;5.68;1.38;;;;;;;13.56;60.73;102292.03;5031379;28;20539;-40
2021/09/30 12:29:26;;;;;;;5.90;1.08;;;;;;;13.56;61.00;102283.91;5030837;28;20060;-41
2021/09/30 12:32:15;;;;;;;4.07;1.10;;;;;;;13.72;60.15;102269.59;5030015;28;20026;-40
2021/09/30 12:34:44;;;;;;;4.20;0.90;;;;;;;13.92;59.74;102264.69;5024512;28;20424;-40
2021/09/30 12:37:10;;;;;;;5.53;1.50;;;;;;;14.10;59.04;102262.66;5032047;28;20114;-41
2021/09/30 12:39:35;;;;;;;9.50;1.05;;;;;;;14.14;58.60;102253.19;5031415;28;20469;-41
2021/09/30 12:42:15;;;;;;;10.57;1.30;;;;;;;14.22;58.62;102255.03;5031863;28;20064;-41
2021/09/30 12:44:44;;;;;;;11.00;1.40;;;;;;;14.34;58.61;102244.69;5032068;28;20056;-40
2021/09/30 12:47:34;;;;;;;6.30;1.20;;;;;;;14.31;59.09;102247.72;5013437;28;20049;-42
2021/09/30 12:50:04;;;;;;;8.98;1.98;;;;;;;14.37;59.25;102263.28;5022907;28;20033;-41
2021/09/30 12:52:29;;;;;;;4.35;1.92;;;;;;;14.24;58.76;102253.84;5030220;28;20514;-41
2021/09/30 12:54:55;;;;;;;5.38;1.45;;;;;;;14.17;59.53;102246.59;5026479;28;20113;-40
2021/09/30 12:57:21;;;;;;;5.30;1.33;;;;;;;14.12;59.73;102241.66;5032232;28;20488;-41
2021/09/30 13:00:17;;;;;;;9.63;1.40;;;;;;;13.99;60.35;102236.78;5031111;28;20044;-41
2021/09/30 13:02:43;;;;;;;6.07;1.30;;;;;;;14.00;60.45;102233.03;5029035;28;20037;-42
2021/09/30 13:05:10;;;;;;;5.53;1.30;;;;;;;14.11;60.61;102229.13;5030715;28;20456;-41
2021/09/30 13:07:47;;;;;;;10.13;1.45;;;;;;;14.36;60.41;102223.69;5029782;28;20040;-42
2021/09/30 13:10:15;;;;;;;7.70;1.70;;;;;;;14.39;60.38;102212.50;5028219;28;20516;-41
2021/09/30 13:13:00;;;;;;;8.68;1.45;;;;;;;14.30;60.32;102208.13;5017863;28;20025;-41
2021/09/30 13:15:45;;;;;;;8.50;1.40;;;;;;;14.26;61.09;102213.03;5026614;28;20057;-41
2021/09/30 13:18:13;;;;;;;4.88;1.10;;;;;;;14.06;61.50;102212.59;5029936;28;20048;-42
2021/09/30 13:20:41;;;;;;;4.70;1.30;;;;;;;14.07;61.99;102197.19;5029763;28;20032;-42
2021/09/30 13:23:06;;;;;;;11.88;2.33;;;;;;;13.95;61.78;102199.38;5031680;28;20025;-41
2021/09/30 13:25:32;;;;;;;7.22;1.35;;;;;;;13.79;62.17;102189.41;5030488;28;20036;-42
2021/09/30 13:27:58;;;;;;;7.20;1.55;;;;;;;13.80;62.05;102202.78;5030744;28;20033;-41
2021/09/30 13:30:27;;;;;;;4.85;1.10;;;;;;;13.79;61.97;102184.84;5030680;28;20033;-41
2021/09/30 13:32:56;;;;;;;7.00;1.65;;;;;;;13.84;62.68;102187.88;5029654;28;20022;-40
2021/09/30 13:35:24;;;;;;;9.90;1.60;;;;;;;13.78;63.12;102177.75;5022815;28;20022;-41
2021/09/30 13:37:49;;;;;;;;;;;;;;;13.70;63.54;102168.81;5028823;28;20423;-41
2021/09/30 13:40:14;;;;;;;7.28;1.95;;;;;;;13.75;64.24;102170.00;5030575;28;20024;-42
2021/09/30 13:42:40;;;;;;;5.15;1.25;;;;;;;13.78;64.22;102169.63;5031224;28;20112;-40
2021/09/30 13:45:11;;;;;;;9.32;1.67;;;;;;;13.71;64.30;102163.22;5029934;28;20057;-40
2021/09/30 13:47:37;;;;;;;6.88;1.40;;;;;;;13.78;64.32;102161.53;5030229;28;20476;-40
2021/09/30 13:50:03;;;;;;;5.90;1.38;;;;;;;13.78;64.25;102161.53;5028724;28;20156;-41
2021/09/30 13:52:29;;;;;;;5.03;1.35;;;;;;;13.84;65.01;102139.19;5031722;28;20468;-40
2021/09/30 13:54:54;;;;;;;10.00;1.60;;;;;;;13.87;64.56;102142.56;5030876;28;20064;-42
2021/09/30 13:57:19;;;;;;;7.07;1.67;;;;;;;13.86;63.94;102141.72;5030872;28;20018;-41
2021/09/30 13:59:45;;;;;;;10.30;1.73;;;;;;;13.83;64.53;102132.09;5029269;28;20029;-40
2021/09/30 14:02:10;;;;;;;8.80;1.40;;;;;;;13.90;64.66;102134.09;5030578;28;20495;-41
2021/09/30 14:04:36;;;;;;;8.95;1.60;;;;;;;13.75;63.84;102129.41;5029254;28;20098;-40
2021/09/30 14:07:03;;;;;;;5.57;1.70;;;;;;;13.80;64.01;102131.59;5028326;28;20033;-39
2021/09/30 14:09:28;;;;;;;5.95;1.40;;;;;;;13.71;63.68;102128.03;5028961;28;20025;-42
2021/09/30 14:11:57;;;;;;;6.68;1.20;;;;;;;13.72;64.25;102134.31;5031349;28;20029;-41
2021/09/30 14:14:22;;;;;;;5.90;1.30;;;;;;;13.76;64.09;102132.94;5029066;28;20165;-40
2021/09/30 14:16:49;;;;;;;13.95;2.63;;;;;;;13.63;64.05;102136.16;5030775;28;20026;-40
2021/09/30 14:19:18;;;;;;;10.63;1.65;;;;;;;13.60;64.66;102123.81;5028824;28;20045;-40
2021/09/30 14:21:44;;;;;;;6.65;1.92;;;;;;;13.59;64.61;102130.25;5030837;28;20041;-40
2021/09/30 14:24:09;;;;;;;4.70;1.42;;;;;;;13.51;64.78;102126.72;5030682;28;20083;-42
2021/09/30 14:26:35;;;;;;;9.10;1.73;;;;;;;13.54;64.72;102124.53;5031588;28;20038;-41
2021/09/30 14:29:00;;;;;;;9.13;1.77;;;;;;;13.52;64.47;102110.31;5030747;28;20072;-41